Impacts METAR Board
IDs:

KSFO - San Francisco Intl, CA, US

Updated at: 1200 UTC 07 Jul 2020
Potential Impact None Slight Moderate High
Time 07/00Z 07/01Z 07/02Z 07/03Z 07/04Z 07/05Z 07/06Z 07/07Z 07/08Z 07/09Z 07/10Z 07/11Z 07/12Z
Temp64 62 61 59 56 56 55 56 56 55 55 55 53
Dewpt48 48 48 49 49 49 48 48 49 48 48 48 48
Altim29.98 29.98 29.98 29.97 29.97 29.97 29.97 29.97 29.96 29.95 29.94 29.94 29.95
VIS10 10 10 10 10 10 10 10 10 10 10 10 10
CIG-- -- -- -- -- -- -- -- -- -- -- -- --
CoverFEWFEWFEWFEWFEWFEWCLRCLRFEWFEWFEWFEWFEW
FltCatVFRVFRVFRVFRVFRVFRVFRVFRVFRVFRVFRVFRVFR
WX--------------------------
WDir280280280270270270270270280270270280280
WSpd23 16 23 19 23 31 30 30 23 24 15 16 16
WGst30 -- 30 27 33 -- 38 37 31 28 -- 22 --
Raw hourly METARs
KSFO 062356Z 28023G30KT 10SM FEW028 18/09 A2998 RMK AO2 PK WND 27031/2333 SLP153 T01780089 10194 20178 55001
KSFO 070056Z 28016KT 10SM FEW028 17/09 A2998 RMK AO2 PK WND 28032/0003 SLP151 T01670089
KSFO 070156Z 28023G30KT 10SM FEW028 16/09 A2998 RMK AO2 PK WND 27030/0155 SLP151 T01610089
KSFO 070256Z 27019G27KT 10SM FEW026 15/09 A2997 RMK AO2 PK WND 27033/0210 SLP147 T01500094 58006
KSFO 070356Z 27023G33KT 10SM FEW026 13/09 A2997 RMK AO2 PK WND 27033/0353 SLP147 T01330094
KSFO 070456Z 27031KT 10SM FEW011 13/09 A2997 RMK AO2 PK WND 26039/0416 SLP148 T01330094
KSFO 070556Z 27030G38KT 10SM CLR 13/09 A2997 RMK AO2 PK WND 27038/0556 SLP147 T01280089 10178 20128 50000
KSFO 070656Z 27030G37KT 10SM CLR 13/09 A2997 RMK AO2 PK WND 27038/0609 SLP147 T01330089
KSFO 070756Z 28023G31KT 10SM FEW006 13/09 A2996 RMK AO2 PK WND 28036/0710 SLP144 T01330094 401940128 $
KSFO 070856Z 27024G28KT 10SM FEW006 13/09 A2995 RMK AO2 PK WND 28031/0809 SLP143 T01280089 56004 $
KSFO 070956Z 27015KT 10SM FEW006 13/09 A2994 RMK AO2 PK WND 28028/0912 SLP139 T01280089 $
KSFO 071056Z 28016G22KT 10SM FEW006 FEW012 13/09 A2994 RMK AO2 SLP139 T01280089 $
KSFO 071156Z 28016KT 10SM FEW006 FEW012 12/09 A2995 RMK AO2 SLP141 T01170089 10133 20117 55002 $



Page loaded:  12:31 UTC  |   05:31 AM Pacific  |   06:31 AM Mountain  |   07:31 AM Central  |   08:31 AM Eastern

 

ADVISORIES

FORECASTS

FORECASTS

OBSERVATIONS

USER TOOLS

ABOUT US